Austin, Utah
Current Conditions -  °F | °C
As of 3:52 AM on Monday 20 Oct 2014 (Local Time) from KMLF Reporting Station
Clear Clear  
Wind Chill: 42°   Ceiling: Unl
Heat Index: 45°   Visibility: 10mi
Dew Point: 31°   Wind: 6mph
Humidity: 58%   Direction: 210°SSW
Pressure: 30.06"   Gusts: NA
Location:  38.6125°N, 112.081°W
Report Text: KMLF 200952Z AUTO 21005KT 10SM CLR 07/M01 A3006 RMK AO2 SLP137 T00721006 TSNO
Loading
Personal Weather Stations






























Interactive Weather Map New forecast layout! Learn more

10-Day Weather Forecast

Advertisements
Track Severe Weather on mobile